KAPG

Phillips AAF Airport

Aberdeen Proving Grounds(Aberdeen), Maryland, USA
METAR KAPG 251252Z 00000KT 6SM -SHRA BR OVC006 20/19 A3026
Observed Flight Rules
Sep-25 @ 12:52 UTC (2 hours ago) Instrument Flight Rules
Visibility Clouds Conditions
6 miles
  • Overcast at 600' AGL
  • Light Rain
  • Mist
Temperatures Readings
Current 20°C / 68°F
Dewpoint 19°C / 66°F
Humidity 94%
Altimeter 30.26" Hg
Pressure 1025 hPa
Elevation 18
METAR KAPG 251252Z 00000KT 6SM -SHRA BR OVC006 20/19 A3026
Observed Flight Rules
Sep-25 @ 12:52 UTC
(2 hours ago)
IFR
Clouds
  • Overcast at 600' AGL
Conditions
  • Light Rain
  • Mist
Temperature Dewpoint
20°C / 68°F 19°C / 66°F
Humidity Altimeter Pressure
94% 30.26" Hg 1025 hPa